sensor_id;sensor_type;location;lat;lon;timestamp;P1;durP1;ratioP1;P2;durP2;ratioP2
10250;SDS011;5170;58.692;12.478;2023-02-28T00:02:25;2.00;;;0.93;;
10250;SDS011;5170;58.692;12.478;2023-02-28T00:05:14;2.33;;;0.73;;
10250;SDS011;5170;58.692;12.478;2023-02-28T00:08:03;3.70;;;0.83;;
10250;SDS011;5170;58.692;12.478;2023-02-28T00:10:51;1.27;;;0.93;;
10250;SDS011;5170;58.692;12.478;2023-02-28T00:13:40;1.60;;;1.27;;
10250;SDS011;5170;58.692;12.478;2023-02-28T00:16:27;1.60;;;1.00;;
10250;SDS011;5170;58.692;12.478;2023-02-28T00:19:15;0.77;;;0.50;;
10250;SDS011;5170;58.692;12.478;2023-02-28T00:22:03;0.30;;;0.20;;
10250;SDS011;5170;58.692;12.478;2023-02-28T00:24:52;0.53;;;0.37;;
10250;SDS011;5170;58.692;12.478;2023-02-28T00:27:40;0.87;;;0.60;;
10250;SDS011;5170;58.692;12.478;2023-02-28T00:30:28;0.53;;;0.40;;
10250;SDS011;5170;58.692;12.478;2023-02-28T00:33:15;0.93;;;0.60;;
10250;SDS011;5170;58.692;12.478;2023-02-28T00:36:04;2.17;;;0.77;;
10250;SDS011;5170;58.692;12.478;2023-02-28T00:38:52;1.10;;;0.60;;
10250;SDS011;5170;58.692;12.478;2023-02-28T00:41:41;1.30;;;0.80;;
10250;SDS011;5170;58.692;12.478;2023-02-28T00:44:28;1.37;;;0.60;;
10250;SDS011;5170;58.692;12.478;2023-02-28T00:47:16;1.67;;;0.70;;
10250;SDS011;5170;58.692;12.478;2023-02-28T00:50:04;1.93;;;0.70;;
10250;SDS011;5170;58.692;12.478;2023-02-28T00:52:52;3.80;;;1.17;;
10250;SDS011;5170;58.692;12.478;2023-02-28T00:55:39;0.93;;;0.57;;
10250;SDS011;5170;58.692;12.478;2023-02-28T00:58:28;2.67;;;1.03;;
10250;SDS011;5170;58.692;12.478;2023-02-28T01:01:16;0.83;;;0.40;;
10250;SDS011;5170;58.692;12.478;2023-02-28T01:04:04;1.00;;;0.70;;
10250;SDS011;5170;58.692;12.478;2023-02-28T01:06:51;2.37;;;0.70;;
10250;SDS011;5170;58.692;12.478;2023-02-28T01:09:39;1.67;;;0.90;;
10250;SDS011;5170;58.692;12.478;2023-02-28T01:12:27;0.70;;;0.63;;
10250;SDS011;5170;58.692;12.478;2023-02-28T01:15:16;1.20;;;0.80;;
10250;SDS011;5170;58.692;12.478;2023-02-28T01:18:03;0.93;;;0.73;;
10250;SDS011;5170;58.692;12.478;2023-02-28T01:20:51;1.20;;;0.90;;
10250;SDS011;5170;58.692;12.478;2023-02-28T01:23:39;0.97;;;0.67;;
10250;SDS011;5170;58.692;12.478;2023-02-28T01:26:26;2.30;;;0.60;;
10250;SDS011;5170;58.692;12.478;2023-02-28T01:29:14;1.87;;;0.70;;
10250;SDS011;5170;58.692;12.478;2023-02-28T01:32:03;0.60;;;0.40;;
10250;SDS011;5170;58.692;12.478;2023-02-28T01:34:51;0.97;;;0.57;;
10250;SDS011;5170;58.692;12.478;2023-02-28T01:37:39;0.87;;;0.60;;
10250;SDS011;5170;58.692;12.478;2023-02-28T01:40:26;1.13;;;0.60;;
10250;SDS011;5170;58.692;12.478;2023-02-28T01:43:16;1.77;;;0.70;;
10250;SDS011;5170;58.692;12.478;2023-02-28T01:46:06;0.90;;;0.50;;
10250;SDS011;5170;58.692;12.478;2023-02-28T01:48:56;1.13;;;0.67;;
10250;SDS011;5170;58.692;12.478;2023-02-28T01:51:46;2.67;;;0.70;;
10250;SDS011;5170;58.692;12.478;2023-02-28T01:54:36;2.13;;;0.53;;
10250;SDS011;5170;58.692;12.478;2023-02-28T01:57:25;1.00;;;0.50;;
10250;SDS011;5170;58.692;12.478;2023-02-28T02:00:15;0.60;;;0.40;;
10250;SDS011;5170;58.692;12.478;2023-02-28T02:03:05;1.63;;;0.67;;
10250;SDS011;5170;58.692;12.478;2023-02-28T02:05:55;1.37;;;0.80;;
10250;SDS011;5170;58.692;12.478;2023-02-28T02:08:43;1.03;;;0.70;;
10250;SDS011;5170;58.692;12.478;2023-02-28T02:11:30;0.63;;;0.57;;
10250;SDS011;5170;58.692;12.478;2023-02-28T02:14:25;1.10;;;0.60;;
10250;SDS011;5170;58.692;12.478;2023-02-28T02:17:19;2.00;;;0.90;;
10250;SDS011;5170;58.692;12.478;2023-02-28T02:23:26;1.30;;;0.70;;
10250;SDS011;5170;58.692;12.478;2023-02-28T02:26:31;1.00;;;0.70;;
10250;SDS011;5170;58.692;12.478;2023-02-28T02:32:48;0.77;;;0.47;;
10250;SDS011;5170;58.692;12.478;2023-02-28T02:35:44;1.73;;;0.77;;
10250;SDS011;5170;58.692;12.478;2023-02-28T02:38:36;0.80;;;0.50;;
10250;SDS011;5170;58.692;12.478;2023-02-28T02:41:27;1.83;;;0.70;;
10250;SDS011;5170;58.692;12.478;2023-02-28T02:44:18;0.90;;;0.60;;
10250;SDS011;5170;58.692;12.478;2023-02-28T02:47:09;2.13;;;0.70;;
10250;SDS011;5170;58.692;12.478;2023-02-28T02:49:57;1.47;;;0.93;;
10250;SDS011;5170;58.692;12.478;2023-02-28T02:52:48;0.87;;;0.60;;
10250;SDS011;5170;58.692;12.478;2023-02-28T02:55:38;2.13;;;0.67;;
10250;SDS011;5170;58.692;12.478;2023-02-28T02:58:27;0.70;;;0.70;;
10250;SDS011;5170;58.692;12.478;2023-02-28T03:01:18;1.00;;;0.63;;
10250;SDS011;5170;58.692;12.478;2023-02-28T03:04:13;0.93;;;0.70;;
10250;SDS011;5170;58.692;12.478;2023-02-28T03:07:03;2.53;;;0.70;;
10250;SDS011;5170;58.692;12.478;2023-02-28T03:09:53;1.17;;;0.70;;
10250;SDS011;5170;58.692;12.478;2023-02-28T03:12:42;0.90;;;0.70;;
10250;SDS011;5170;58.692;12.478;2023-02-28T03:15:34;1.90;;;0.83;;
10250;SDS011;5170;58.692;12.478;2023-02-28T03:18:24;1.13;;;0.60;;
10250;SDS011;5170;58.692;12.478;2023-02-28T03:21:15;2.90;;;0.83;;
10250;SDS011;5170;58.692;12.478;2023-02-28T03:24:08;1.17;;;0.60;;
10250;SDS011;5170;58.692;12.478;2023-02-28T03:26:58;1.13;;;0.50;;
10250;SDS011;5170;58.692;12.478;2023-02-28T03:29:47;1.63;;;0.50;;
10250;SDS011;5170;58.692;12.478;2023-02-28T03:32:38;0.97;;;0.50;;
10250;SDS011;5170;58.692;12.478;2023-02-28T03:35:29;0.90;;;0.40;;
10250;SDS011;5170;58.692;12.478;2023-02-28T03:38:19;2.00;;;0.90;;
10250;SDS011;5170;58.692;12.478;2023-02-28T03:41:10;2.53;;;0.63;;
10250;SDS011;5170;58.692;12.478;2023-02-28T03:44:03;0.97;;;0.60;;
10250;SDS011;5170;58.692;12.478;2023-02-28T03:46:52;1.93;;;0.67;;
10250;SDS011;5170;58.692;12.478;2023-02-28T03:49:42;1.63;;;0.50;;
10250;SDS011;5170;58.692;12.478;2023-02-28T03:52:33;1.33;;;0.50;;
10250;SDS011;5170;58.692;12.478;2023-02-28T03:55:22;1.83;;;0.70;;
10250;SDS011;5170;58.692;12.478;2023-02-28T03:58:11;0.83;;;0.53;;
10250;SDS011;5170;58.692;12.478;2023-02-28T04:01:03;1.03;;;0.40;;
10250;SDS011;5170;58.692;12.478;2023-02-28T04:03:53;0.50;;;0.47;;
10250;SDS011;5170;58.692;12.478;2023-02-28T04:06:41;1.73;;;0.60;;
10250;SDS011;5170;58.692;12.478;2023-02-28T04:09:29;1.73;;;0.83;;
10250;SDS011;5170;58.692;12.478;2023-02-28T04:12:16;3.33;;;0.80;;
10250;SDS011;5170;58.692;12.478;2023-02-28T04:15:05;1.57;;;0.40;;
10250;SDS011;5170;58.692;12.478;2023-02-28T04:17:54;2.70;;;0.60;;
10250;SDS011;5170;58.692;12.478;2023-02-28T04:20:41;1.23;;;0.50;;
10250;SDS011;5170;58.692;12.478;2023-02-28T04:23:29;1.40;;;0.70;;
10250;SDS011;5170;58.692;12.478;2023-02-28T04:26:17;1.10;;;0.67;;
10250;SDS011;5170;58.692;12.478;2023-02-28T04:29:05;1.13;;;0.53;;
10250;SDS011;5170;58.692;12.478;2023-02-28T04:31:53;2.83;;;0.70;;
10250;SDS011;5170;58.692;12.478;2023-02-28T04:34:44;1.00;;;0.60;;
10250;SDS011;5170;58.692;12.478;2023-02-28T04:37:32;0.57;;;0.37;;
10250;SDS011;5170;58.692;12.478;2023-02-28T04:40:20;1.00;;;0.40;;
10250;SDS011;5170;58.692;12.478;2023-02-28T04:43:07;0.73;;;0.67;;
10250;SDS011;5170;58.692;12.478;2023-02-28T04:45:55;1.33;;;0.60;;
10250;SDS011;5170;58.692;12.478;2023-02-28T04:48:43;1.50;;;0.93;;
10250;SDS011;5170;58.692;12.478;2023-02-28T04:51:33;0.83;;;0.63;;
10250;SDS011;5170;58.692;12.478;2023-02-28T04:54:20;3.10;;;1.17;;
10250;SDS011;5170;58.692;12.478;2023-02-28T04:57:08;0.67;;;0.57;;
10250;SDS011;5170;58.692;12.478;2023-02-28T04:59:56;1.57;;;0.50;;
10250;SDS011;5170;58.692;12.478;2023-02-28T05:02:43;1.93;;;0.70;;
10250;SDS011;5170;58.692;12.478;2023-02-28T05:05:31;2.23;;;1.13;;
10250;SDS011;5170;58.692;12.478;2023-02-28T05:08:20;2.37;;;0.90;;
10250;SDS011;5170;58.692;12.478;2023-02-28T05:11:12;1.00;;;0.80;;
10250;SDS011;5170;58.692;12.478;2023-02-28T05:14:00;1.13;;;0.90;;
10250;SDS011;5170;58.692;12.478;2023-02-28T05:16:48;2.03;;;0.83;;
10250;SDS011;5170;58.692;12.478;2023-02-28T05:19:36;0.90;;;0.70;;
10250;SDS011;5170;58.692;12.478;2023-02-28T05:22:23;1.23;;;0.80;;
10250;SDS011;5170;58.692;12.478;2023-02-28T05:25:13;2.40;;;1.30;;
10250;SDS011;5170;58.692;12.478;2023-02-28T05:28:03;7.10;;;2.10;;
10250;SDS011;5170;58.692;12.478;2023-02-28T05:30:51;2.17;;;1.30;;
10250;SDS011;5170;58.692;12.478;2023-02-28T05:33:39;4.40;;;1.30;;
10250;SDS011;5170;58.692;12.478;2023-02-28T05:36:26;1.53;;;1.23;;
10250;SDS011;5170;58.692;12.478;2023-02-28T05:39:14;6.03;;;2.00;;
10250;SDS011;5170;58.692;12.478;2023-02-28T05:42:03;4.67;;;1.70;;
10250;SDS011;5170;58.692;12.478;2023-02-28T05:44:51;6.87;;;2.93;;
10250;SDS011;5170;58.692;12.478;2023-02-28T05:47:39;4.10;;;1.83;;
10250;SDS011;5170;58.692;12.478;2023-02-28T05:50:27;2.20;;;1.13;;
10250;SDS011;5170;58.692;12.478;2023-02-28T05:53:14;3.20;;;1.80;;
10250;SDS011;5170;58.692;12.478;2023-02-28T05:56:02;2.60;;;1.13;;
10250;SDS011;5170;58.692;12.478;2023-02-28T05:58:51;2.70;;;0.90;;
10250;SDS011;5170;58.692;12.478;2023-02-28T06:01:39;1.23;;;0.80;;
10250;SDS011;5170;58.692;12.478;2023-02-28T06:04:27;3.00;;;0.77;;
10250;SDS011;5170;58.692;12.478;2023-02-28T06:07:15;1.27;;;0.70;;
10250;SDS011;5170;58.692;12.478;2023-02-28T06:10:04;2.00;;;0.80;;
10250;SDS011;5170;58.692;12.478;2023-02-28T06:12:51;1.20;;;0.63;;
10250;SDS011;5170;58.692;12.478;2023-02-28T06:15:41;0.60;;;0.40;;
10250;SDS011;5170;58.692;12.478;2023-02-28T06:18:28;0.50;;;0.50;;
10250;SDS011;5170;58.692;12.478;2023-02-28T06:21:16;1.23;;;0.53;;
10250;SDS011;5170;58.692;12.478;2023-02-28T06:24:04;1.53;;;0.70;;
10250;SDS011;5170;58.692;12.478;2023-02-28T06:26:52;1.17;;;0.87;;
10250;SDS011;5170;58.692;12.478;2023-02-28T06:29:39;5.70;;;1.10;;
10250;SDS011;5170;58.692;12.478;2023-02-28T06:32:29;1.90;;;1.40;;
10250;SDS011;5170;58.692;12.478;2023-02-28T06:35:16;5.03;;;1.20;;
10250;SDS011;5170;58.692;12.478;2023-02-28T06:38:04;1.70;;;1.10;;
10250;SDS011;5170;58.692;12.478;2023-02-28T06:40:55;0.77;;;0.70;;
10250;SDS011;5170;58.692;12.478;2023-02-28T06:43:43;2.73;;;1.00;;
10250;SDS011;5170;58.692;12.478;2023-02-28T06:46:30;2.73;;;1.10;;
10250;SDS011;5170;58.692;12.478;2023-02-28T06:49:19;1.63;;;1.07;;
10250;SDS011;5170;58.692;12.478;2023-02-28T06:52:07;2.33;;;1.50;;
10250;SDS011;5170;58.692;12.478;2023-02-28T06:54:55;4.13;;;2.87;;
10250;SDS011;5170;58.692;12.478;2023-02-28T06:57:46;3.93;;;2.90;;
10250;SDS011;5170;58.692;12.478;2023-02-28T07:00:35;4.83;;;3.67;;
10250;SDS011;5170;58.692;12.478;2023-02-28T07:03:23;5.30;;;3.97;;
10250;SDS011;5170;58.692;12.478;2023-02-28T07:06:12;8.97;;;5.03;;
10250;SDS011;5170;58.692;12.478;2023-02-28T07:09:03;12.93;;;6.10;;
10250;SDS011;5170;58.692;12.478;2023-02-28T07:11:51;8.70;;;4.60;;
10250;SDS011;5170;58.692;12.478;2023-02-28T07:14:38;6.40;;;3.33;;
10250;SDS011;5170;58.692;12.478;2023-02-28T07:17:26;6.23;;;3.67;;
10250;SDS011;5170;58.692;12.478;2023-02-28T07:20:14;10.23;;;4.30;;
10250;SDS011;5170;58.692;12.478;2023-02-28T07:23:03;6.37;;;3.90;;
10250;SDS011;5170;58.692;12.478;2023-02-28T07:25:50;5.30;;;2.90;;
10250;SDS011;5170;58.692;12.478;2023-02-28T07:28:38;4.60;;;2.53;;
10250;SDS011;5170;58.692;12.478;2023-02-28T07:31:26;4.13;;;2.20;;
10250;SDS011;5170;58.692;12.478;2023-02-28T07:34:13;4.27;;;2.27;;
10250;SDS011;5170;58.692;12.478;2023-02-28T07:37:01;1.77;;;1.50;;
10250;SDS011;5170;58.692;12.478;2023-02-28T07:39:52;2.93;;;1.90;;
10250;SDS011;5170;58.692;12.478;2023-02-28T07:42:40;3.80;;;2.13;;
10250;SDS011;5170;58.692;12.478;2023-02-28T07:45:28;1.47;;;1.00;;
10250;SDS011;5170;58.692;12.478;2023-02-28T07:48:18;1.10;;;0.67;;
10250;SDS011;5170;58.692;12.478;2023-02-28T07:51:05;2.90;;;0.70;;
10250;SDS011;5170;58.692;12.478;2023-02-28T07:53:53;1.60;;;0.73;;
10250;SDS011;5170;58.692;12.478;2023-02-28T07:56:42;1.60;;;1.10;;
10250;SDS011;5170;58.692;12.478;2023-02-28T07:59:29;1.43;;;0.87;;
10250;SDS011;5170;58.692;12.478;2023-02-28T08:02:18;1.07;;;0.60;;
10250;SDS011;5170;58.692;12.478;2023-02-28T08:05:06;1.03;;;0.60;;
10250;SDS011;5170;58.692;12.478;2023-02-28T08:07:54;2.27;;;1.30;;
10250;SDS011;5170;58.692;12.478;2023-02-28T08:10:42;4.17;;;2.80;;
10250;SDS011;5170;58.692;12.478;2023-02-28T08:13:31;6.30;;;4.03;;
10250;SDS011;5170;58.692;12.478;2023-02-28T08:16:19;4.10;;;2.33;;
10250;SDS011;5170;58.692;12.478;2023-02-28T08:19:07;2.73;;;1.03;;
10250;SDS011;5170;58.692;12.478;2023-02-28T08:21:55;3.57;;;1.50;;
10250;SDS011;5170;58.692;12.478;2023-02-28T08:24:43;1.97;;;1.40;;
10250;SDS011;5170;58.692;12.478;2023-02-28T08:27:30;1.40;;;1.30;;
10250;SDS011;5170;58.692;12.478;2023-02-28T08:30:19;1.93;;;1.53;;
10250;SDS011;5170;58.692;12.478;2023-02-28T08:33:07;0.90;;;0.80;;
10250;SDS011;5170;58.692;12.478;2023-02-28T08:35:55;0.80;;;0.73;;
10250;SDS011;5170;58.692;12.478;2023-02-28T08:38:43;1.23;;;0.93;;
10250;SDS011;5170;58.692;12.478;2023-02-28T08:41:31;1.03;;;0.73;;
10250;SDS011;5170;58.692;12.478;2023-02-28T08:44:19;1.00;;;0.90;;
10250;SDS011;5170;58.692;12.478;2023-02-28T08:47:08;1.23;;;0.70;;
10250;SDS011;5170;58.692;12.478;2023-02-28T08:49:55;0.80;;;0.80;;
10250;SDS011;5170;58.692;12.478;2023-02-28T08:52:43;1.43;;;0.90;;
10250;SDS011;5170;58.692;12.478;2023-02-28T08:55:31;2.27;;;0.57;;
10250;SDS011;5170;58.692;12.478;2023-02-28T08:58:19;1.20;;;0.50;;
10250;SDS011;5170;58.692;12.478;2023-02-28T09:01:07;1.97;;;0.73;;
10250;SDS011;5170;58.692;12.478;2023-02-28T09:03:57;5.23;;;1.10;;
10250;SDS011;5170;58.692;12.478;2023-02-28T09:06:45;0.80;;;0.60;;
10250;SDS011;5170;58.692;12.478;2023-02-28T09:09:34;2.97;;;1.80;;
10250;SDS011;5170;58.692;12.478;2023-02-28T09:12:21;1.73;;;0.93;;
10250;SDS011;5170;58.692;12.478;2023-02-28T09:15:10;2.57;;;1.67;;
10250;SDS011;5170;58.692;12.478;2023-02-28T09:17:57;2.53;;;1.37;;
10250;SDS011;5170;58.692;12.478;2023-02-28T09:20:46;0.87;;;0.80;;
10250;SDS011;5170;58.692;12.478;2023-02-28T09:23:35;1.10;;;0.73;;
10250;SDS011;5170;58.692;12.478;2023-02-28T09:26:25;1.10;;;0.90;;
10250;SDS011;5170;58.692;12.478;2023-02-28T09:29:13;4.93;;;1.53;;
10250;SDS011;5170;58.692;12.478;2023-02-28T09:32:02;1.53;;;0.90;;
10250;SDS011;5170;58.692;12.478;2023-02-28T09:34:53;1.33;;;0.70;;
10250;SDS011;5170;58.692;12.478;2023-02-28T09:37:42;1.30;;;0.80;;
10250;SDS011;5170;58.692;12.478;2023-02-28T09:40:29;1.10;;;1.00;;
10250;SDS011;5170;58.692;12.478;2023-02-28T09:43:17;2.00;;;1.50;;
10250;SDS011;5170;58.692;12.478;2023-02-28T09:46:08;4.10;;;1.07;;
10250;SDS011;5170;58.692;12.478;2023-02-28T09:49:00;0.80;;;0.80;;
10250;SDS011;5170;58.692;12.478;2023-02-28T09:51:50;0.80;;;0.63;;
10250;SDS011;5170;58.692;12.478;2023-02-28T09:54:39;2.47;;;0.97;;
10250;SDS011;5170;58.692;12.478;2023-02-28T09:57:29;3.03;;;0.60;;
10250;SDS011;5170;58.692;12.478;2023-02-28T10:00:19;0.80;;;0.63;;
10250;SDS011;5170;58.692;12.478;2023-02-28T10:03:23;0.90;;;0.70;;
10250;SDS011;5170;58.692;12.478;2023-02-28T10:06:13;1.37;;;1.10;;
10250;SDS011;5170;58.692;12.478;2023-02-28T10:09:02;1.60;;;0.83;;
10250;SDS011;5170;58.692;12.478;2023-02-28T10:11:52;1.33;;;1.17;;
10250;SDS011;5170;58.692;12.478;2023-02-28T10:14:41;3.17;;;0.70;;
10250;SDS011;5170;58.692;12.478;2023-02-28T10:17:35;7.57;;;2.23;;
10250;SDS011;5170;58.692;12.478;2023-02-28T10:20:23;1.00;;;0.83;;
10250;SDS011;5170;58.692;12.478;2023-02-28T10:23:17;1.17;;;0.77;;
10250;SDS011;5170;58.692;12.478;2023-02-28T10:26:09;0.77;;;0.70;;
10250;SDS011;5170;58.692;12.478;2023-02-28T10:29:00;0.80;;;0.57;;
10250;SDS011;5170;58.692;12.478;2023-02-28T10:31:48;2.83;;;0.30;;
10250;SDS011;5170;58.692;12.478;2023-02-28T10:34:36;0.30;;;0.30;;
10250;SDS011;5170;58.692;12.478;2023-02-28T10:37:23;0.40;;;0.40;;
10250;SDS011;5170;58.692;12.478;2023-02-28T10:40:28;0.37;;;0.37;;
10250;SDS011;5170;58.692;12.478;2023-02-28T10:43:19;0.53;;;0.33;;
10250;SDS011;5170;58.692;12.478;2023-02-28T10:46:12;0.37;;;0.37;;
10250;SDS011;5170;58.692;12.478;2023-02-28T10:49:01;0.50;;;0.33;;
10250;SDS011;5170;58.692;12.478;2023-02-28T10:51:51;0.30;;;0.07;;
10250;SDS011;5170;58.692;12.478;2023-02-28T10:54:39;0.30;;;0.00;;
10250;SDS011;5170;58.692;12.478;2023-02-28T10:57:27;0.30;;;0.00;;
10250;SDS011;5170;58.692;12.478;2023-02-28T11:00:18;0.30;;;0.00;;
10250;SDS011;5170;58.692;12.478;2023-02-28T11:03:10;0.90;;;0.20;;
10250;SDS011;5170;58.692;12.478;2023-02-28T11:06:13;0.30;;;0.00;;
10250;SDS011;5170;58.692;12.478;2023-02-28T11:09:03;0.40;;;0.10;;
10250;SDS011;5170;58.692;12.478;2023-02-28T11:11:51;0.30;;;0.10;;
10250;SDS011;5170;58.692;12.478;2023-02-28T11:14:40;2.83;;;0.13;;
10250;SDS011;5170;58.692;12.478;2023-02-28T11:17:30;0.50;;;0.00;;
10250;SDS011;5170;58.692;12.478;2023-02-28T11:20:20;0.30;;;0.00;;
10250;SDS011;5170;58.692;12.478;2023-02-28T11:23:10;0.30;;;0.10;;
10250;SDS011;5170;58.692;12.478;2023-02-28T11:26:00;0.30;;;0.10;;
10250;SDS011;5170;58.692;12.478;2023-02-28T11:28:50;0.43;;;0.10;;
10250;SDS011;5170;58.692;12.478;2023-02-28T11:32:01;0.30;;;0.00;;
10250;SDS011;5170;58.692;12.478;2023-02-28T11:34:59;0.30;;;0.00;;
10250;SDS011;5170;58.692;12.478;2023-02-28T11:37:49;1.60;;;0.10;;
10250;SDS011;5170;58.692;12.478;2023-02-28T11:40:38;0.30;;;0.00;;
10250;SDS011;5170;58.692;12.478;2023-02-28T11:43:37;0.30;;;0.00;;
10250;SDS011;5170;58.692;12.478;2023-02-28T11:46:29;0.30;;;0.00;;
10250;SDS011;5170;58.692;12.478;2023-02-28T11:49:23;0.30;;;0.00;;
10250;SDS011;5170;58.692;12.478;2023-02-28T11:52:19;0.40;;;0.10;;
10250;SDS011;5170;58.692;12.478;2023-02-28T11:55:13;0.30;;;0.00;;
10250;SDS011;5170;58.692;12.478;2023-02-28T12:01:07;0.30;;;0.00;;
10250;SDS011;5170;58.692;12.478;2023-02-28T12:04:01;0.50;;;0.50;;
10250;SDS011;5170;58.692;12.478;2023-02-28T12:06:52;0.30;;;0.00;;
10250;SDS011;5170;58.692;12.478;2023-02-28T12:09:47;0.30;;;0.00;;
10250;SDS011;5170;58.692;12.478;2023-02-28T12:12:43;0.30;;;0.00;;
10250;SDS011;5170;58.692;12.478;2023-02-28T12:18:47;0.30;;;0.20;;
10250;SDS011;5170;58.692;12.478;2023-02-28T12:21:42;0.80;;;0.30;;
10250;SDS011;5170;58.692;12.478;2023-02-28T12:24:37;0.30;;;0.00;;
10250;SDS011;5170;58.692;12.478;2023-02-28T12:27:27;1.27;;;0.20;;
10250;SDS011;5170;58.692;12.478;2023-02-28T12:30:18;0.30;;;0.10;;
10250;SDS011;5170;58.692;12.478;2023-02-28T12:33:07;0.30;;;0.20;;
10250;SDS011;5170;58.692;12.478;2023-02-28T12:35:56;0.37;;;0.20;;
10250;SDS011;5170;58.692;12.478;2023-02-28T12:38:45;0.30;;;0.10;;
10250;SDS011;5170;58.692;12.478;2023-02-28T12:41:36;0.60;;;0.27;;
10250;SDS011;5170;58.692;12.478;2023-02-28T12:44:27;0.37;;;0.17;;
10250;SDS011;5170;58.692;12.478;2023-02-28T12:47:17;0.50;;;0.30;;
10250;SDS011;5170;58.692;12.478;2023-02-28T12:50:06;0.50;;;0.30;;
10250;SDS011;5170;58.692;12.478;2023-02-28T12:52:58;1.67;;;0.40;;
10250;SDS011;5170;58.692;12.478;2023-02-28T12:55:48;0.43;;;0.10;;
10250;SDS011;5170;58.692;12.478;2023-02-28T12:58:37;0.50;;;0.23;;
10250;SDS011;5170;58.692;12.478;2023-02-28T13:01:32;0.47;;;0.20;;
10250;SDS011;5170;58.692;12.478;2023-02-28T13:07:43;0.30;;;0.10;;
10250;SDS011;5170;58.692;12.478;2023-02-28T13:10:40;0.37;;;0.20;;
10250;SDS011;5170;58.692;12.478;2023-02-28T13:13:28;0.30;;;0.10;;
10250;SDS011;5170;58.692;12.478;2023-02-28T13:16:16;0.93;;;0.50;;
10250;SDS011;5170;58.692;12.478;2023-02-28T13:19:08;0.50;;;0.20;;
10250;SDS011;5170;58.692;12.478;2023-02-28T13:21:57;0.80;;;0.20;;
10250;SDS011;5170;58.692;12.478;2023-02-28T13:24:47;1.17;;;0.30;;
10250;SDS011;5170;58.692;12.478;2023-02-28T13:27:37;0.47;;;0.10;;
10250;SDS011;5170;58.692;12.478;2023-02-28T13:33:32;0.60;;;0.27;;
10250;SDS011;5170;58.692;12.478;2023-02-28T13:36:24;0.43;;;0.13;;
10250;SDS011;5170;58.692;12.478;2023-02-28T13:42:32;0.60;;;0.13;;
10250;SDS011;5170;58.692;12.478;2023-02-28T13:45:23;0.80;;;0.10;;
10250;SDS011;5170;58.692;12.478;2023-02-28T13:48:15;0.30;;;0.10;;
10250;SDS011;5170;58.692;12.478;2023-02-28T13:54:11;0.53;;;0.20;;
10250;SDS011;5170;58.692;12.478;2023-02-28T13:57:08;0.33;;;0.03;;
10250;SDS011;5170;58.692;12.478;2023-02-28T14:00:05;1.37;;;0.20;;
10250;SDS011;5170;58.692;12.478;2023-02-28T14:03:06;1.53;;;0.17;;
10250;SDS011;5170;58.692;12.478;2023-02-28T14:09:02;0.30;;;0.10;;
10250;SDS011;5170;58.692;12.478;2023-02-28T14:11:53;1.40;;;0.30;;
10250;SDS011;5170;58.692;12.478;2023-02-28T14:14:54;0.60;;;0.10;;
10250;SDS011;5170;58.692;12.478;2023-02-28T14:17:44;0.47;;;0.20;;
10250;SDS011;5170;58.692;12.478;2023-02-28T14:20:32;0.83;;;0.10;;
10250;SDS011;5170;58.692;12.478;2023-02-28T14:23:40;0.30;;;0.00;;
10250;SDS011;5170;58.692;12.478;2023-02-28T14:26:32;0.30;;;0.10;;
10250;SDS011;5170;58.692;12.478;2023-02-28T14:29:35;0.30;;;0.10;;
10250;SDS011;5170;58.692;12.478;2023-02-28T14:32:26;1.70;;;0.10;;
10250;SDS011;5170;58.692;12.478;2023-02-28T14:35:35;0.30;;;0.10;;
10250;SDS011;5170;58.692;12.478;2023-02-28T14:38:27;0.40;;;0.10;;
10250;SDS011;5170;58.692;12.478;2023-02-28T14:41:18;0.40;;;0.10;;
10250;SDS011;5170;58.692;12.478;2023-02-28T14:44:13;0.47;;;0.10;;
10250;SDS011;5170;58.692;12.478;2023-02-28T14:47:02;1.10;;;0.10;;
10250;SDS011;5170;58.692;12.478;2023-02-28T14:49:52;0.40;;;0.10;;
10250;SDS011;5170;58.692;12.478;2023-02-28T14:52:42;0.30;;;0.20;;
10250;SDS011;5170;58.692;12.478;2023-02-28T14:55:31;0.30;;;0.07;;
10250;SDS011;5170;58.692;12.478;2023-02-28T14:58:22;0.30;;;0.10;;
10250;SDS011;5170;58.692;12.478;2023-02-28T15:01:10;2.80;;;0.33;;
10250;SDS011;5170;58.692;12.478;2023-02-28T15:04:02;0.30;;;0.17;;
10250;SDS011;5170;58.692;12.478;2023-02-28T15:12:56;3.03;;;1.13;;
10250;SDS011;5170;58.692;12.478;2023-02-28T15:15:45;1.87;;;1.47;;
10250;SDS011;5170;58.692;12.478;2023-02-28T15:18:37;0.30;;;0.20;;
10250;SDS011;5170;58.692;12.478;2023-02-28T15:21:29;0.30;;;0.10;;
10250;SDS011;5170;58.692;12.478;2023-02-28T15:24:19;0.30;;;0.10;;
10250;SDS011;5170;58.692;12.478;2023-02-28T15:27:11;0.30;;;0.20;;
10250;SDS011;5170;58.692;12.478;2023-02-28T15:30:05;0.30;;;0.00;;
10250;SDS011;5170;58.692;12.478;2023-02-28T15:33:03;3.20;;;0.10;;
10250;SDS011;5170;58.692;12.478;2023-02-28T15:35:51;0.80;;;0.20;;
10250;SDS011;5170;58.692;12.478;2023-02-28T15:38:39;0.33;;;0.20;;
10250;SDS011;5170;58.692;12.478;2023-02-28T15:41:28;1.80;;;0.43;;
10250;SDS011;5170;58.692;12.478;2023-02-28T15:44:25;1.30;;;0.27;;
10250;SDS011;5170;58.692;12.478;2023-02-28T15:47:17;0.50;;;0.30;;
10250;SDS011;5170;58.692;12.478;2023-02-28T15:50:08;1.43;;;0.40;;
10250;SDS011;5170;58.692;12.478;2023-02-28T15:52:58;4.47;;;0.40;;
10250;SDS011;5170;58.692;12.478;2023-02-28T15:55:55;1.13;;;0.40;;
10250;SDS011;5170;58.692;12.478;2023-02-28T15:58:44;0.70;;;0.70;;
10250;SDS011;5170;58.692;12.478;2023-02-28T16:01:32;1.63;;;0.30;;
10250;SDS011;5170;58.692;12.478;2023-02-28T16:04:21;4.13;;;0.70;;
10250;SDS011;5170;58.692;12.478;2023-02-28T16:07:15;1.07;;;0.37;;
10250;SDS011;5170;58.692;12.478;2023-02-28T16:10:03;0.33;;;0.13;;
10250;SDS011;5170;58.692;12.478;2023-02-28T16:12:51;1.60;;;1.03;;
10250;SDS011;5170;58.692;12.478;2023-02-28T16:15:41;1.80;;;0.97;;
10250;SDS011;5170;58.692;12.478;2023-02-28T16:18:29;1.10;;;0.70;;
10250;SDS011;5170;58.692;12.478;2023-02-28T16:21:18;3.50;;;1.53;;
10250;SDS011;5170;58.692;12.478;2023-02-28T16:24:06;3.10;;;1.13;;
10250;SDS011;5170;58.692;12.478;2023-02-28T16:26:54;3.53;;;1.73;;
10250;SDS011;5170;58.692;12.478;2023-02-28T16:29:42;6.87;;;1.30;;
10250;SDS011;5170;58.692;12.478;2023-02-28T16:32:30;3.40;;;2.07;;
10250;SDS011;5170;58.692;12.478;2023-02-28T16:35:19;2.73;;;0.97;;
10250;SDS011;5170;58.692;12.478;2023-02-28T16:38:08;3.50;;;1.30;;
10250;SDS011;5170;58.692;12.478;2023-02-28T16:40:57;6.57;;;1.37;;
10250;SDS011;5170;58.692;12.478;2023-02-28T16:43:46;4.83;;;0.73;;
10250;SDS011;5170;58.692;12.478;2023-02-28T16:46:34;1.73;;;0.80;;
10250;SDS011;5170;58.692;12.478;2023-02-28T16:49:22;6.40;;;0.70;;
10250;SDS011;5170;58.692;12.478;2023-02-28T16:52:10;0.40;;;0.20;;
10250;SDS011;5170;58.692;12.478;2023-02-28T16:54:59;2.80;;;0.70;;
10250;SDS011;5170;58.692;12.478;2023-02-28T16:57:47;0.30;;;0.03;;
10250;SDS011;5170;58.692;12.478;2023-02-28T17:00:37;1.07;;;0.13;;
10250;SDS011;5170;58.692;12.478;2023-02-28T17:03:26;0.90;;;0.37;;
10250;SDS011;5170;58.692;12.478;2023-02-28T17:06:17;0.30;;;0.17;;
10250;SDS011;5170;58.692;12.478;2023-02-28T17:09:05;3.60;;;0.37;;
10250;SDS011;5170;58.692;12.478;2023-02-28T17:11:56;0.67;;;0.50;;
10250;SDS011;5170;58.692;12.478;2023-02-28T17:14:44;1.10;;;0.43;;
10250;SDS011;5170;58.692;12.478;2023-02-28T17:17:32;2.97;;;0.60;;
10250;SDS011;5170;58.692;12.478;2023-02-28T17:20:20;2.07;;;0.40;;
10250;SDS011;5170;58.692;12.478;2023-02-28T17:23:08;3.10;;;0.70;;
10250;SDS011;5170;58.692;12.478;2023-02-28T17:25:56;3.53;;;0.70;;
10250;SDS011;5170;58.692;12.478;2023-02-28T17:28:45;1.50;;;0.90;;
10250;SDS011;5170;58.692;12.478;2023-02-28T17:31:33;1.37;;;0.37;;
10250;SDS011;5170;58.692;12.478;2023-02-28T17:34:24;1.10;;;0.37;;
10250;SDS011;5170;58.692;12.478;2023-02-28T17:37:11;0.80;;;0.30;;
10250;SDS011;5170;58.692;12.478;2023-02-28T17:39:59;0.90;;;0.30;;